createdAt,value
2023-02-23T00:02:52.210Z,6.95
2023-02-23T00:05:59.898Z,7.55
2023-02-23T00:09:12.294Z,6.85
2023-02-23T00:12:17.498Z,7.07
2023-02-23T00:15:27.305Z,6.75
2023-02-23T00:18:41.415Z,8.02
2023-02-23T00:21:49.578Z,7.43
2023-02-23T00:24:54.783Z,6.47
2023-02-23T00:28:00.164Z,7.15
2023-02-23T00:31:05.464Z,7.38
2023-02-23T00:34:10.727Z,7.35
2023-02-23T00:37:19.290Z,7.45
2023-02-23T00:40:26.762Z,7.63
2023-02-23T00:43:32.059Z,7.63
2023-02-23T00:46:37.937Z,7.65
2023-02-23T00:49:45.212Z,7.35
2023-02-23T00:52:53.173Z,7.15
2023-02-23T00:55:59.397Z,7.28
2023-02-23T00:59:04.768Z,8.10
2023-02-23T01:02:10.607Z,6.68
2023-02-23T01:05:16.791Z,7.57
2023-02-23T01:08:25.198Z,7.88
2023-02-23T01:11:32.319Z,8.75
2023-02-23T01:14:37.893Z,7.18
2023-02-23T01:17:43.338Z,6.95
2023-02-23T01:20:50.871Z,6.40
2023-02-23T01:23:59.282Z,7.00
2023-02-23T01:27:05.039Z,6.57
2023-02-23T01:30:12.262Z,6.10
2023-02-23T01:33:17.691Z,6.05
2023-02-23T01:36:23.270Z,7.45
2023-02-23T01:39:31.347Z,6.90
2023-02-23T01:42:42.621Z,6.03
2023-02-23T01:45:48.691Z,7.05
2023-02-23T01:48:56.736Z,6.13
2023-02-23T01:52:03.451Z,7.40
2023-02-23T01:55:13.272Z,6.38
2023-02-23T01:58:22.004Z,6.82
2023-02-23T02:01:28.139Z,6.50
2023-02-23T02:04:38.378Z,7.20
2023-02-23T02:07:45.556Z,7.32
2023-02-23T02:10:56.424Z,7.30
2023-02-23T02:14:03.091Z,7.18
2023-02-23T02:17:21.149Z,8.32
2023-02-23T02:20:50.921Z,6.82
2023-02-23T02:24:14.593Z,7.75
2023-02-23T02:27:31.326Z,6.53
2023-02-23T02:30:56.886Z,7.13
2023-02-23T02:34:18.452Z,7.85
2023-02-23T02:37:40.187Z,7.82
2023-02-23T02:40:53.616Z,8.13
2023-02-23T02:44:03.322Z,7.93
2023-02-23T02:47:11.514Z,6.28
2023-02-23T02:50:18.871Z,6.40
2023-02-23T02:56:33.951Z,6.72
2023-02-23T02:59:58.220Z,7.47
2023-02-23T03:03:15.652Z,6.82
2023-02-23T03:06:34.392Z,6.78
2023-02-23T03:09:58.489Z,7.20
2023-02-23T03:13:25.047Z,7.10
2023-02-23T03:16:46.649Z,6.93
2023-02-23T03:20:12.568Z,7.00
2023-02-23T03:23:35.323Z,6.68
2023-02-23T03:26:54.466Z,7.25
2023-02-23T03:30:19.405Z,6.50
2023-02-23T03:33:43.815Z,6.78
2023-02-23T03:37:03.634Z,6.95
2023-02-23T03:40:25.576Z,6.13
2023-02-23T03:43:46.058Z,6.10
2023-02-23T03:47:07.094Z,5.90
2023-02-23T03:50:27.632Z,7.63
2023-02-23T03:53:47.089Z,6.88
2023-02-23T03:57:06.540Z,6.10
2023-02-23T04:00:26.677Z,7.28
2023-02-23T04:03:49.625Z,5.82
2023-02-23T04:07:10.393Z,6.82
2023-02-23T04:10:27.861Z,6.22
2023-02-23T04:13:31.068Z,6.07
2023-02-23T04:16:34.180Z,7.75
2023-02-23T04:19:42.138Z,8.27
2023-02-23T04:22:47.553Z,7.47
2023-02-23T04:25:53.158Z,7.72
2023-02-23T04:28:58.828Z,7.05
2023-02-23T04:32:04.169Z,6.82
2023-02-23T04:35:13.072Z,5.68
2023-02-23T04:38:18.295Z,7.85
2023-02-23T04:41:23.845Z,7.07
2023-02-23T04:44:29.067Z,6.80
2023-02-23T04:47:34.362Z,7.45
2023-02-23T04:50:42.629Z,7.68
2023-02-23T04:53:48.002Z,7.22
2023-02-23T04:56:53.390Z,6.10
2023-02-23T04:59:58.868Z,7.53
2023-02-23T05:03:04.066Z,7.65
2023-02-23T05:06:12.244Z,7.88
2023-02-23T05:09:17.600Z,7.60
2023-02-23T05:12:23.158Z,8.43
2023-02-23T05:15:28.487Z,7.63
2023-02-23T05:18:33.543Z,6.50
2023-02-23T05:21:42.124Z,6.63
2023-02-23T05:24:48.098Z,7.10
2023-02-23T05:27:53.124Z,7.55
2023-02-23T05:30:58.509Z,8.32
2023-02-23T05:34:06.017Z,7.70
2023-02-23T05:37:14.213Z,15.40
2023-02-23T05:40:19.674Z,9.18
2023-02-23T05:43:25.122Z,8.02
2023-02-23T05:46:30.934Z,7.45
2023-02-23T05:49:36.607Z,6.15
2023-02-23T05:52:44.658Z,7.72
2023-02-23T05:55:50.019Z,7.57
2023-02-23T05:58:55.798Z,7.80
2023-02-23T06:02:01.058Z,7.47
2023-02-23T06:05:06.405Z,7.43
2023-02-23T06:08:14.331Z,7.25
2023-02-23T06:11:19.828Z,7.30
2023-02-23T06:14:25.829Z,7.80
2023-02-23T06:17:31.140Z,7.47
2023-02-23T06:20:38.200Z,7.97
2023-02-23T06:23:48.110Z,7.47
2023-02-23T06:26:53.691Z,8.18
2023-02-23T06:29:58.755Z,7.30
2023-02-23T06:33:04.570Z,6.55
2023-02-23T06:36:10.641Z,8.18
2023-02-23T06:39:18.312Z,7.50
2023-02-23T06:42:23.738Z,7.70
2023-02-23T06:45:29.164Z,7.40
2023-02-23T06:48:35.696Z,7.70
2023-02-23T06:51:41.081Z,7.38
2023-02-23T06:54:50.235Z,14.65
2023-02-23T06:57:55.439Z,11.85
2023-02-23T07:01:00.963Z,7.70
2023-02-23T07:04:06.755Z,7.97
2023-02-23T07:07:13.126Z,8.35
2023-02-23T07:10:21.201Z,8.27
2023-02-23T07:13:26.684Z,7.50
2023-02-23T07:16:32.420Z,7.50
2023-02-23T07:19:38.101Z,7.10
2023-02-23T07:22:43.258Z,8.95
2023-02-23T07:25:52.729Z,8.35
2023-02-23T07:28:58.324Z,7.32
2023-02-23T07:32:03.520Z,7.28
2023-02-23T07:35:09.467Z,7.75
2023-02-23T07:38:14.751Z,8.02
2023-02-23T07:41:22.668Z,8.30
2023-02-23T07:44:28.036Z,7.40
2023-02-23T07:47:33.593Z,8.65
2023-02-23T07:50:38.842Z,7.53
2023-02-23T07:53:44.549Z,7.60
2023-02-23T07:56:52.504Z,6.95
2023-02-23T08:03:02.730Z,6.80
2023-02-23T08:06:08.226Z,7.80
2023-02-23T08:09:14.592Z,7.53
2023-02-23T08:12:22.531Z,8.52
2023-02-23T08:18:32.800Z,6.20
2023-02-23T08:21:38.413Z,6.53
2023-02-23T08:24:43.488Z,6.93
2023-02-23T08:27:52.303Z,7.82
2023-02-23T08:30:57.809Z,8.00
2023-02-23T08:34:03.355Z,6.65
2023-02-23T08:37:08.919Z,7.15
2023-02-23T08:40:15.859Z,6.47
2023-02-23T08:43:24.004Z,6.80
2023-02-23T08:46:29.224Z,6.80
2023-02-23T08:49:35.393Z,6.38
2023-02-23T08:52:40.681Z,7.00
2023-02-23T08:55:46.047Z,7.03
2023-02-23T08:58:53.767Z,6.55
2023-02-23T09:05:03.780Z,6.68
2023-02-23T09:08:09.233Z,7.10
2023-02-23T09:11:14.803Z,6.70
2023-02-23T09:14:22.710Z,6.00
2023-02-23T09:20:33.013Z,5.43
2023-02-23T09:23:38.871Z,6.22
2023-02-23T09:26:45.899Z,7.03
2023-02-23T09:29:53.974Z,7.20
2023-02-23T09:32:59.723Z,7.28
2023-02-23T09:36:07.405Z,5.82
2023-02-23T09:39:12.483Z,6.03
2023-02-23T09:42:28.517Z,6.18
2023-02-23T09:45:41.767Z,7.00
2023-02-23T09:48:47.308Z,7.10
2023-02-23T09:51:57.806Z,6.68
2023-02-23T09:55:03.240Z,7.35
2023-02-23T09:58:10.963Z,6.70
2023-02-23T10:01:34.939Z,7.60
2023-02-23T10:04:43.876Z,7.03
2023-02-23T10:07:53.421Z,6.43
2023-02-23T10:11:04.052Z,6.18
2023-02-23T10:14:24.782Z,5.50
2023-02-23T10:17:37.813Z,6.50
2023-02-23T10:20:51.441Z,5.88
2023-02-23T10:23:59.634Z,4.90
2023-02-23T10:27:07.791Z,7.40
2023-02-23T10:33:19.921Z,5.65
2023-02-23T10:36:32.967Z,6.13
2023-02-23T10:39:38.379Z,6.63
2023-02-23T10:42:43.651Z,5.80
2023-02-23T10:45:50.470Z,5.97
2023-02-23T10:48:57.282Z,7.53
2023-02-23T10:52:07.902Z,6.85
2023-02-23T10:55:24.815Z,7.05
2023-02-23T10:58:31.033Z,6.33
2023-02-23T11:01:43.889Z,6.70
2023-02-23T11:04:57.294Z,6.53
2023-02-23T11:08:15.164Z,6.40
2023-02-23T11:11:29.033Z,9.32
2023-02-23T11:14:34.848Z,6.93
2023-02-23T11:17:40.929Z,6.90
2023-02-23T11:20:46.252Z,6.97
2023-02-23T11:23:54.869Z,6.13
2023-02-23T11:27:03.970Z,7.00
2023-02-23T11:30:10.030Z,5.80
2023-02-23T11:33:19.462Z,6.55
2023-02-23T11:36:29.869Z,7.07
2023-02-23T11:39:39.603Z,6.25
2023-02-23T11:42:53.944Z,7.30
2023-02-23T11:46:00.624Z,6.38
2023-02-23T11:49:08.150Z,7.05
2023-02-23T11:52:17.450Z,9.27
2023-02-23T11:55:25.758Z,6.93
2023-02-23T11:58:38.331Z,5.88
2023-02-23T12:01:45.802Z,5.60
2023-02-23T12:04:51.139Z,5.63
2023-02-23T12:07:59.125Z,6.05
2023-02-23T12:11:09.547Z,5.57
2023-02-23T12:14:16.797Z,6.40
2023-02-23T12:17:24.469Z,5.70
2023-02-23T12:20:31.876Z,6.07
2023-02-23T12:23:38.833Z,5.45
2023-02-23T12:26:49.573Z,6.50
2023-02-23T12:30:01.837Z,4.80
2023-02-23T12:33:14.992Z,5.38
2023-02-23T12:36:26.707Z,5.50
2023-02-23T12:39:34.609Z,5.72
2023-02-23T12:42:46.234Z,6.13
2023-02-23T12:45:55.545Z,7.53
2023-02-23T12:49:05.689Z,7.35
2023-02-23T12:52:15.158Z,7.63
2023-02-23T12:55:25.045Z,6.82
2023-02-23T12:58:40.623Z,7.03
2023-02-23T13:01:48.246Z,6.03
2023-02-23T13:05:08.363Z,6.63
2023-02-23T13:08:22.603Z,6.10
2023-02-23T13:11:35.187Z,5.97
2023-02-23T13:14:46.273Z,6.43
2023-02-23T13:17:54.563Z,6.32
2023-02-23T13:24:11.236Z,6.07
2023-02-23T13:27:20.059Z,5.95
2023-02-23T13:30:28.069Z,6.10
2023-02-23T13:33:43.599Z,6.07
2023-02-23T13:36:50.748Z,6.28
2023-02-23T13:40:05.136Z,5.47
2023-02-23T13:43:17.961Z,5.25
2023-02-23T13:46:29.656Z,5.28
2023-02-23T13:49:39.555Z,5.93
2023-02-23T13:52:45.779Z,5.43
2023-02-23T13:55:52.152Z,5.50
2023-02-23T13:58:59.177Z,6.18
2023-02-23T14:02:19.277Z,5.80
2023-02-23T14:05:25.736Z,6.22
2023-02-23T14:08:34.977Z,6.07
2023-02-23T14:11:51.028Z,5.80
2023-02-23T14:14:56.468Z,6.13
2023-02-23T14:18:04.850Z,5.82
2023-02-23T14:21:17.183Z,5.75
2023-02-23T14:24:24.061Z,5.85
2023-02-23T14:27:45.632Z,5.85
2023-02-23T14:30:52.843Z,6.25
2023-02-23T14:34:09.250Z,6.57
2023-02-23T14:37:22.443Z,6.68
2023-02-23T14:40:35.809Z,6.47
2023-02-23T14:43:45.883Z,6.25
2023-02-23T14:46:52.028Z,6.18
2023-02-23T14:50:01.933Z,6.43
2023-02-23T14:53:10.384Z,7.20
2023-02-23T14:56:26.216Z,6.57
2023-02-23T14:59:40.084Z,7.28
2023-02-23T15:02:56.375Z,6.38
2023-02-23T15:06:04.463Z,6.55
2023-02-23T15:09:11.001Z,7.72
2023-02-23T15:12:18.230Z,7.43
2023-02-23T15:15:25.407Z,6.60
2023-02-23T15:18:32.813Z,7.30
2023-02-23T15:21:40.729Z,6.82
2023-02-23T15:24:47.509Z,6.80
2023-02-23T15:27:53.340Z,7.32
2023-02-23T15:31:00.149Z,7.22
2023-02-23T15:34:05.409Z,7.05
2023-02-23T15:37:16.337Z,7.20
2023-02-23T15:40:23.125Z,8.02
2023-02-23T15:43:30.184Z,7.72
2023-02-23T15:46:37.894Z,6.65
2023-02-23T15:49:43.650Z,7.05
2023-02-23T15:52:54.246Z,7.03
2023-02-23T15:56:03.376Z,6.88
2023-02-23T15:59:11.398Z,7.13
2023-02-23T16:02:18.462Z,7.93
2023-02-23T16:05:25.870Z,6.95
2023-02-23T16:08:36.857Z,7.30
2023-02-23T16:11:42.521Z,7.55
2023-02-23T16:14:49.471Z,7.18
2023-02-23T16:17:57.964Z,7.60
2023-02-23T16:21:03.484Z,7.65
2023-02-23T16:24:22.442Z,7.70
2023-02-23T16:27:28.964Z,8.70
2023-02-23T16:30:38.676Z,7.85
2023-02-23T16:33:44.918Z,10.30
2023-02-23T16:36:53.905Z,8.48
2023-02-23T16:40:01.746Z,8.55
2023-02-23T16:43:08.344Z,9.30
2023-02-23T16:46:14.109Z,8.60
2023-02-23T16:49:20.332Z,9.07
2023-02-23T16:52:27.404Z,8.23
2023-02-23T16:55:39.608Z,8.98
2023-02-23T16:58:47.155Z,8.70
2023-02-23T17:01:52.521Z,8.23
2023-02-23T17:04:59.194Z,7.93
2023-02-23T17:08:05.239Z,10.10
2023-02-23T17:11:13.513Z,8.00
2023-02-23T17:14:25.090Z,7.78
2023-02-23T17:17:31.894Z,7.93
2023-02-23T17:20:37.098Z,7.40
2023-02-23T17:23:51.443Z,8.60
2023-02-23T17:26:59.660Z,8.05
2023-02-23T17:33:09.757Z,8.07
2023-02-23T17:36:16.367Z,7.97
2023-02-23T17:39:21.884Z,7.15
2023-02-23T17:42:35.356Z,8.20
2023-02-23T17:45:40.975Z,8.25
2023-02-23T17:48:47.704Z,8.05
2023-02-23T17:51:52.996Z,7.55
2023-02-23T17:54:59.511Z,7.43
2023-02-23T17:58:08.080Z,8.85
2023-02-23T18:01:13.646Z,9.65
2023-02-23T18:04:19.445Z,8.35
2023-02-23T18:07:27.760Z,8.73
2023-02-23T18:10:36.982Z,8.57
2023-02-23T18:13:46.924Z,8.38
2023-02-23T18:16:53.344Z,7.95
2023-02-23T18:19:58.540Z,8.20
2023-02-23T18:23:03.898Z,8.25
2023-02-23T18:26:09.712Z,8.20
2023-02-23T18:29:18.979Z,8.45
2023-02-23T18:32:24.646Z,8.45
2023-02-23T18:35:29.937Z,8.63
2023-02-23T18:38:35.646Z,8.77
2023-02-23T18:41:41.986Z,8.30
2023-02-23T18:44:50.320Z,9.15
2023-02-23T18:47:56.473Z,8.48
2023-02-23T18:51:01.799Z,9.55
2023-02-23T18:54:11.851Z,9.10
2023-02-23T18:57:17.297Z,8.48
2023-02-23T19:00:26.246Z,8.38
2023-02-23T19:03:31.715Z,7.82
2023-02-23T19:06:39.326Z,9.32
2023-02-23T19:09:47.955Z,9.55
2023-02-23T19:12:53.297Z,8.95
2023-02-23T19:16:01.404Z,8.73
2023-02-23T19:19:08.015Z,9.13
2023-02-23T19:22:13.268Z,8.60
2023-02-23T19:25:19.065Z,7.45
2023-02-23T19:28:24.238Z,7.38
2023-02-23T19:31:32.516Z,9.02
2023-02-23T19:37:43.266Z,7.63
2023-02-23T19:40:48.658Z,8.02
2023-02-23T19:43:54.420Z,8.20
2023-02-23T19:47:02.349Z,8.38
2023-02-23T19:53:12.767Z,7.53
2023-02-23T19:56:19.628Z,9.43
2023-02-23T19:59:24.887Z,9.27
2023-02-23T20:02:32.890Z,7.90
2023-02-23T20:08:48.680Z,8.93
2023-02-23T20:11:53.899Z,8.10
2023-02-23T20:14:59.129Z,9.50
2023-02-23T20:18:07.676Z,8.90
2023-02-23T20:21:13.794Z,9.02
2023-02-23T20:24:19.186Z,8.40
2023-02-23T20:27:24.758Z,8.98
2023-02-23T20:30:30.055Z,8.85
2023-02-23T20:33:38.210Z,8.82
2023-02-23T20:36:43.911Z,9.07
2023-02-23T20:39:49.603Z,10.02
2023-02-23T20:42:54.957Z,8.35
2023-02-23T20:46:01.082Z,9.95
2023-02-23T20:49:10.850Z,8.07
2023-02-23T20:52:16.201Z,7.90
2023-02-23T20:55:26.529Z,8.50
2023-02-23T20:58:31.889Z,7.95
2023-02-23T21:01:37.035Z,8.57
2023-02-23T21:04:45.346Z,8.93
2023-02-23T21:07:50.630Z,7.90
2023-02-23T21:10:55.766Z,8.57
2023-02-23T21:14:01.247Z,7.85
2023-02-23T21:17:06.876Z,8.20
2023-02-23T21:20:15.753Z,7.65
2023-02-23T21:23:21.962Z,9.23
2023-02-23T21:26:30.685Z,8.25
2023-02-23T21:29:36.915Z,8.40
2023-02-23T21:32:44.267Z,8.55
2023-02-23T21:35:55.708Z,9.68
2023-02-23T21:39:01.964Z,9.35
2023-02-23T21:42:07.337Z,8.13
2023-02-23T21:45:13.963Z,9.02
2023-02-23T21:48:19.322Z,8.75
2023-02-23T21:51:27.517Z,9.32
2023-02-23T21:54:37.242Z,9.57
2023-02-23T21:57:42.767Z,8.82
2023-02-23T22:00:49.114Z,10.60
2023-02-23T22:03:55.481Z,9.25
2023-02-23T22:07:03.379Z,9.93
2023-02-23T22:10:08.873Z,9.15
2023-02-23T22:13:13.985Z,9.88
2023-02-23T22:16:21.773Z,8.93
2023-02-23T22:19:26.884Z,9.45
2023-02-23T22:22:36.504Z,9.30
2023-02-23T22:25:41.521Z,8.77
2023-02-23T22:28:47.003Z,8.50
2023-02-23T22:31:52.394Z,9.57
2023-02-23T22:34:57.977Z,9.05
2023-02-23T22:38:05.930Z,9.15
2023-02-23T22:41:12.246Z,9.77
2023-02-23T22:44:18.808Z,9.25
2023-02-23T22:47:23.876Z,9.20
2023-02-23T22:50:29.344Z,9.20
2023-02-23T22:53:37.275Z,8.82
2023-02-23T22:56:42.807Z,9.02
2023-02-23T23:00:00.217Z,9.15
2023-02-23T23:03:05.934Z,9.60
2023-02-23T23:06:13.113Z,8.95
2023-02-23T23:09:21.485Z,10.05
2023-02-23T23:12:28.326Z,10.00
2023-02-23T23:15:35.222Z,9.15
2023-02-23T23:18:42.682Z,9.63
2023-02-23T23:21:48.529Z,11.77
2023-02-23T23:24:57.291Z,10.20
2023-02-23T23:28:04.985Z,10.68
2023-02-23T23:31:12.404Z,10.40
2023-02-23T23:34:21.934Z,10.07
2023-02-23T23:37:29.496Z,9.85
2023-02-23T23:40:38.586Z,11.95
2023-02-23T23:43:46.861Z,9.18
2023-02-23T23:46:53.357Z,10.77
2023-02-23T23:49:59.736Z,9.70
2023-02-23T23:53:04.834Z,10.65
2023-02-23T23:56:13.567Z,10.02
2023-02-23T23:59:20.603Z,10.55
